sensor_id;sensor_type;location;lat;lon;timestamp;P1;durP1;ratioP1;P2;durP2;ratioP2
57317;SDS011;43157;50.982;18.132;2023-08-31T00:02:09;11.40;;;3.10;;
57317;SDS011;43157;50.982;18.132;2023-08-31T00:04:35;8.00;;;3.00;;
57317;SDS011;43157;50.982;18.132;2023-08-31T00:07:01;8.40;;;3.30;;
57317;SDS011;43157;50.982;18.132;2023-08-31T00:09:27;9.10;;;3.10;;
57317;SDS011;43157;50.982;18.132;2023-08-31T00:11:54;8.40;;;2.80;;
57317;SDS011;43157;50.982;18.132;2023-08-31T00:14:22;7.70;;;2.70;;
57317;SDS011;43157;50.982;18.132;2023-08-31T00:16:47;8.60;;;2.70;;
57317;SDS011;43157;50.982;18.132;2023-08-31T00:19:14;9.70;;;3.20;;
57317;SDS011;43157;50.982;18.132;2023-08-31T00:21:40;10.10;;;2.90;;
57317;SDS011;43157;50.982;18.132;2023-08-31T00:24:06;8.50;;;3.00;;
57317;SDS011;43157;50.982;18.132;2023-08-31T00:26:35;7.40;;;2.50;;
57317;SDS011;43157;50.982;18.132;2023-08-31T00:29:10;8.20;;;3.00;;
57317;SDS011;43157;50.982;18.132;2023-08-31T00:31:41;12.10;;;2.80;;
57317;SDS011;43157;50.982;18.132;2023-08-31T00:34:10;8.80;;;3.20;;
57317;SDS011;43157;50.982;18.132;2023-08-31T00:36:37;9.40;;;3.20;;
57317;SDS011;43157;50.982;18.132;2023-08-31T00:39:03;7.90;;;3.00;;
57317;SDS011;43157;50.982;18.132;2023-08-31T00:41:34;13.40;;;3.90;;
57317;SDS011;43157;50.982;18.132;2023-08-31T00:44:00;9.30;;;3.60;;
57317;SDS011;43157;50.982;18.132;2023-08-31T00:46:26;10.30;;;4.00;;
57317;SDS011;43157;50.982;18.132;2023-08-31T00:48:53;10.20;;;3.60;;
57317;SDS011;43157;50.982;18.132;2023-08-31T00:51:19;9.00;;;4.10;;
57317;SDS011;43157;50.982;18.132;2023-08-31T00:53:46;9.00;;;4.00;;
57317;SDS011;43157;50.982;18.132;2023-08-31T00:56:11;11.20;;;4.60;;
57317;SDS011;43157;50.982;18.132;2023-08-31T00:58:38;10.40;;;4.20;;
57317;SDS011;43157;50.982;18.132;2023-08-31T01:03:57;10.40;;;4.60;;
57317;SDS011;43157;50.982;18.132;2023-08-31T01:14:33;12.70;;;4.60;;
57317;SDS011;43157;50.982;18.132;2023-08-31T01:17:00;12.70;;;4.70;;
57317;SDS011;43157;50.982;18.132;2023-08-31T01:22:07;14.90;;;4.60;;
57317;SDS011;43157;50.982;18.132;2023-08-31T01:24:35;10.80;;;4.70;;
57317;SDS011;43157;50.982;18.132;2023-08-31T01:27:04;10.20;;;4.10;;
57317;SDS011;43157;50.982;18.132;2023-08-31T01:29:30;11.70;;;4.80;;
57317;SDS011;43157;50.982;18.132;2023-08-31T01:31:56;10.90;;;4.20;;
57317;SDS011;43157;50.982;18.132;2023-08-31T01:34:22;11.40;;;4.00;;
57317;SDS011;43157;50.982;18.132;2023-08-31T01:36:51;12.80;;;4.30;;
57317;SDS011;43157;50.982;18.132;2023-08-31T01:39:27;8.90;;;4.20;;
57317;SDS011;43157;50.982;18.132;2023-08-31T01:41:55;11.40;;;4.40;;
57317;SDS011;43157;50.982;18.132;2023-08-31T01:44:22;12.00;;;4.30;;
57317;SDS011;43157;50.982;18.132;2023-08-31T01:46:51;10.20;;;4.20;;
57317;SDS011;43157;50.982;18.132;2023-08-31T01:49:17;9.90;;;3.70;;
57317;SDS011;43157;50.982;18.132;2023-08-31T01:51:43;11.60;;;4.20;;
57317;SDS011;43157;50.982;18.132;2023-08-31T01:54:09;10.40;;;3.60;;
57317;SDS011;43157;50.982;18.132;2023-08-31T01:56:35;12.00;;;4.20;;
57317;SDS011;43157;50.982;18.132;2023-08-31T01:59:02;11.00;;;4.20;;
57317;SDS011;43157;50.982;18.132;2023-08-31T02:01:28;11.70;;;4.20;;
57317;SDS011;43157;50.982;18.132;2023-08-31T02:03:54;13.70;;;4.30;;
57317;SDS011;43157;50.982;18.132;2023-08-31T02:06:20;11.80;;;4.30;;
57317;SDS011;43157;50.982;18.132;2023-08-31T02:08:47;8.30;;;3.70;;
57317;SDS011;43157;50.982;18.132;2023-08-31T02:11:13;10.00;;;4.00;;
57317;SDS011;43157;50.982;18.132;2023-08-31T02:13:39;10.10;;;3.90;;
57317;SDS011;43157;50.982;18.132;2023-08-31T02:16:05;8.60;;;3.80;;
57317;SDS011;43157;50.982;18.132;2023-08-31T02:18:31;8.00;;;3.70;;
57317;SDS011;43157;50.982;18.132;2023-08-31T02:20:58;12.60;;;4.00;;
57317;SDS011;43157;50.982;18.132;2023-08-31T02:23:24;13.30;;;4.40;;
57317;SDS011;43157;50.982;18.132;2023-08-31T02:25:50;10.80;;;4.00;;
57317;SDS011;43157;50.982;18.132;2023-08-31T02:28:16;12.00;;;4.80;;
57317;SDS011;43157;50.982;18.132;2023-08-31T02:30:43;11.30;;;4.20;;
57317;SDS011;43157;50.982;18.132;2023-08-31T02:33:09;10.60;;;4.50;;
57317;SDS011;43157;50.982;18.132;2023-08-31T02:35:36;10.20;;;4.80;;
57317;SDS011;43157;50.982;18.132;2023-08-31T02:38:02;11.80;;;4.20;;
57317;SDS011;43157;50.982;18.132;2023-08-31T02:40:28;10.80;;;4.10;;
57317;SDS011;43157;50.982;18.132;2023-08-31T02:42:54;10.50;;;4.10;;
57317;SDS011;43157;50.982;18.132;2023-08-31T02:45:20;9.80;;;4.00;;
57317;SDS011;43157;50.982;18.132;2023-08-31T02:47:47;17.30;;;4.30;;
57317;SDS011;43157;50.982;18.132;2023-08-31T02:50:14;12.40;;;3.50;;
57317;SDS011;43157;50.982;18.132;2023-08-31T02:52:41;9.70;;;3.80;;
57317;SDS011;43157;50.982;18.132;2023-08-31T02:55:07;9.10;;;3.80;;
57317;SDS011;43157;50.982;18.132;2023-08-31T02:57:33;13.00;;;3.90;;
57317;SDS011;43157;50.982;18.132;2023-08-31T02:59:58;9.30;;;3.90;;
57317;SDS011;43157;50.982;18.132;2023-08-31T03:02:24;9.60;;;3.90;;
57317;SDS011;43157;50.982;18.132;2023-08-31T03:04:50;9.00;;;3.80;;
57317;SDS011;43157;50.982;18.132;2023-08-31T03:07:16;11.40;;;3.80;;
57317;SDS011;43157;50.982;18.132;2023-08-31T03:09:42;9.60;;;3.70;;
57317;SDS011;43157;50.982;18.132;2023-08-31T03:12:08;10.90;;;3.70;;
57317;SDS011;43157;50.982;18.132;2023-08-31T03:14:34;8.60;;;4.00;;
57317;SDS011;43157;50.982;18.132;2023-08-31T03:16:59;8.30;;;3.50;;
57317;SDS011;43157;50.982;18.132;2023-08-31T03:19:25;9.30;;;4.20;;
57317;SDS011;43157;50.982;18.132;2023-08-31T03:21:50;9.60;;;4.20;;
57317;SDS011;43157;50.982;18.132;2023-08-31T03:24:16;9.90;;;4.00;;
57317;SDS011;43157;50.982;18.132;2023-08-31T03:26:41;10.00;;;4.10;;
57317;SDS011;43157;50.982;18.132;2023-08-31T03:29:07;9.20;;;3.90;;
57317;SDS011;43157;50.982;18.132;2023-08-31T03:31:33;14.10;;;4.80;;
57317;SDS011;43157;50.982;18.132;2023-08-31T03:33:58;14.50;;;4.40;;
57317;SDS011;43157;50.982;18.132;2023-08-31T03:36:24;9.20;;;4.00;;
57317;SDS011;43157;50.982;18.132;2023-08-31T03:38:49;8.80;;;3.60;;
57317;SDS011;43157;50.982;18.132;2023-08-31T03:41:15;8.50;;;3.90;;
57317;SDS011;43157;50.982;18.132;2023-08-31T03:43:41;11.90;;;4.60;;
57317;SDS011;43157;50.982;18.132;2023-08-31T03:46:06;10.10;;;3.80;;
57317;SDS011;43157;50.982;18.132;2023-08-31T03:48:32;9.40;;;4.10;;
57317;SDS011;43157;50.982;18.132;2023-08-31T03:50:57;10.20;;;3.30;;
57317;SDS011;43157;50.982;18.132;2023-08-31T03:53:23;9.90;;;4.00;;
57317;SDS011;43157;50.982;18.132;2023-08-31T03:55:49;12.70;;;4.30;;
57317;SDS011;43157;50.982;18.132;2023-08-31T03:58:15;8.90;;;3.50;;
57317;SDS011;43157;50.982;18.132;2023-08-31T04:14:08;8.70;;;3.40;;
57317;SDS011;43157;50.982;18.132;2023-08-31T04:16:33;10.30;;;3.50;;
57317;SDS011;43157;50.982;18.132;2023-08-31T04:18:59;11.40;;;3.20;;
57317;SDS011;43157;50.982;18.132;2023-08-31T04:21:25;9.10;;;3.60;;
57317;SDS011;43157;50.982;18.132;2023-08-31T04:23:51;11.10;;;4.10;;
57317;SDS011;43157;50.982;18.132;2023-08-31T04:26:18;11.00;;;4.00;;
57317;SDS011;43157;50.982;18.132;2023-08-31T04:28:45;9.30;;;3.70;;
57317;SDS011;43157;50.982;18.132;2023-08-31T04:31:12;8.90;;;3.90;;
57317;SDS011;43157;50.982;18.132;2023-08-31T04:33:38;12.70;;;4.30;;
57317;SDS011;43157;50.982;18.132;2023-08-31T04:36:06;12.10;;;3.90;;
57317;SDS011;43157;50.982;18.132;2023-08-31T04:38:33;13.30;;;3.80;;
57317;SDS011;43157;50.982;18.132;2023-08-31T04:40:59;11.00;;;4.00;;
57317;SDS011;43157;50.982;18.132;2023-08-31T04:43:26;11.10;;;4.20;;
57317;SDS011;43157;50.982;18.132;2023-08-31T04:45:52;11.30;;;3.90;;
57317;SDS011;43157;50.982;18.132;2023-08-31T04:48:19;10.80;;;4.20;;
57317;SDS011;43157;50.982;18.132;2023-08-31T04:50:45;10.70;;;3.80;;
57317;SDS011;43157;50.982;18.132;2023-08-31T04:53:11;10.20;;;4.00;;
57317;SDS011;43157;50.982;18.132;2023-08-31T04:55:37;11.40;;;4.00;;
57317;SDS011;43157;50.982;18.132;2023-08-31T04:58:03;13.30;;;4.30;;
57317;SDS011;43157;50.982;18.132;2023-08-31T05:00:30;9.40;;;3.80;;
57317;SDS011;43157;50.982;18.132;2023-08-31T05:02:56;13.70;;;4.50;;
57317;SDS011;43157;50.982;18.132;2023-08-31T05:05:22;12.50;;;4.10;;
57317;SDS011;43157;50.982;18.132;2023-08-31T05:07:47;9.30;;;3.70;;
57317;SDS011;43157;50.982;18.132;2023-08-31T05:10:14;11.80;;;4.10;;
57317;SDS011;43157;50.982;18.132;2023-08-31T05:12:40;11.80;;;3.70;;
57317;SDS011;43157;50.982;18.132;2023-08-31T05:15:06;9.30;;;3.50;;
57317;SDS011;43157;50.982;18.132;2023-08-31T05:17:33;11.30;;;3.60;;
57317;SDS011;43157;50.982;18.132;2023-08-31T05:19:59;10.90;;;3.70;;
57317;SDS011;43157;50.982;18.132;2023-08-31T05:22:25;10.10;;;3.80;;
57317;SDS011;43157;50.982;18.132;2023-08-31T05:24:52;8.20;;;3.40;;
57317;SDS011;43157;50.982;18.132;2023-08-31T05:27:18;8.20;;;3.30;;
57317;SDS011;43157;50.982;18.132;2023-08-31T05:29:44;12.50;;;3.50;;
57317;SDS011;43157;50.982;18.132;2023-08-31T05:32:10;9.00;;;3.20;;
57317;SDS011;43157;50.982;18.132;2023-08-31T05:34:36;9.70;;;3.60;;
57317;SDS011;43157;50.982;18.132;2023-08-31T05:37:04;9.00;;;3.30;;
57317;SDS011;43157;50.982;18.132;2023-08-31T05:39:31;8.50;;;3.20;;
57317;SDS011;43157;50.982;18.132;2023-08-31T05:41:57;10.40;;;3.30;;
57317;SDS011;43157;50.982;18.132;2023-08-31T05:44:23;9.90;;;3.60;;
57317;SDS011;43157;50.982;18.132;2023-08-31T05:46:49;8.90;;;3.20;;
57317;SDS011;43157;50.982;18.132;2023-08-31T05:49:15;10.20;;;3.00;;
57317;SDS011;43157;50.982;18.132;2023-08-31T05:51:42;8.80;;;3.20;;
57317;SDS011;43157;50.982;18.132;2023-08-31T05:54:08;10.50;;;3.10;;
57317;SDS011;43157;50.982;18.132;2023-08-31T05:56:37;8.50;;;3.00;;
57317;SDS011;43157;50.982;18.132;2023-08-31T05:59:05;8.40;;;3.20;;
57317;SDS011;43157;50.982;18.132;2023-08-31T06:01:31;9.10;;;3.10;;
57317;SDS011;43157;50.982;18.132;2023-08-31T06:03:58;8.00;;;3.10;;
57317;SDS011;43157;50.982;18.132;2023-08-31T06:06:24;8.80;;;3.30;;
57317;SDS011;43157;50.982;18.132;2023-08-31T06:08:50;8.50;;;2.80;;
57317;SDS011;43157;50.982;18.132;2023-08-31T06:11:16;7.90;;;2.80;;
57317;SDS011;43157;50.982;18.132;2023-08-31T06:13:42;10.50;;;3.40;;
57317;SDS011;43157;50.982;18.132;2023-08-31T06:16:09;7.50;;;2.90;;
57317;SDS011;43157;50.982;18.132;2023-08-31T06:18:35;8.90;;;3.10;;
57317;SDS011;43157;50.982;18.132;2023-08-31T06:21:00;8.50;;;2.40;;
57317;SDS011;43157;50.982;18.132;2023-08-31T06:23:26;7.70;;;2.60;;
57317;SDS011;43157;50.982;18.132;2023-08-31T06:25:52;9.80;;;2.90;;
57317;SDS011;43157;50.982;18.132;2023-08-31T06:28:19;9.70;;;3.20;;
57317;SDS011;43157;50.982;18.132;2023-08-31T06:30:45;6.90;;;2.90;;
57317;SDS011;43157;50.982;18.132;2023-08-31T06:33:14;7.60;;;3.00;;
57317;SDS011;43157;50.982;18.132;2023-08-31T06:35:40;9.20;;;3.00;;
57317;SDS011;43157;50.982;18.132;2023-08-31T06:38:06;10.40;;;3.30;;
57317;SDS011;43157;50.982;18.132;2023-08-31T06:40:32;9.80;;;2.90;;
57317;SDS011;43157;50.982;18.132;2023-08-31T06:42:59;8.90;;;3.20;;
57317;SDS011;43157;50.982;18.132;2023-08-31T06:45:25;6.60;;;2.50;;
57317;SDS011;43157;50.982;18.132;2023-08-31T06:47:51;8.60;;;3.00;;
57317;SDS011;43157;50.982;18.132;2023-08-31T06:50:17;7.80;;;2.20;;
57317;SDS011;43157;50.982;18.132;2023-08-31T06:52:43;7.30;;;2.40;;
57317;SDS011;43157;50.982;18.132;2023-08-31T06:55:12;9.40;;;2.40;;
57317;SDS011;43157;50.982;18.132;2023-08-31T06:57:38;7.40;;;2.30;;
57317;SDS011;43157;50.982;18.132;2023-08-31T07:00:04;6.60;;;2.20;;
57317;SDS011;43157;50.982;18.132;2023-08-31T07:02:33;7.00;;;2.20;;
57317;SDS011;43157;50.982;18.132;2023-08-31T07:05:00;6.10;;;2.00;;
57317;SDS011;43157;50.982;18.132;2023-08-31T07:07:26;7.30;;;2.30;;
57317;SDS011;43157;50.982;18.132;2023-08-31T07:09:53;5.40;;;1.70;;
57317;SDS011;43157;50.982;18.132;2023-08-31T07:12:20;6.50;;;2.20;;
57317;SDS011;43157;50.982;18.132;2023-08-31T07:14:46;7.00;;;2.30;;
57317;SDS011;43157;50.982;18.132;2023-08-31T07:17:12;7.40;;;2.30;;
57317;SDS011;43157;50.982;18.132;2023-08-31T07:19:38;7.80;;;2.10;;
57317;SDS011;43157;50.982;18.132;2023-08-31T07:22:04;7.80;;;2.50;;
57317;SDS011;43157;50.982;18.132;2023-08-31T07:24:31;8.60;;;2.50;;
57317;SDS011;43157;50.982;18.132;2023-08-31T07:26:57;8.70;;;2.40;;
57317;SDS011;43157;50.982;18.132;2023-08-31T07:29:24;5.90;;;2.30;;
57317;SDS011;43157;50.982;18.132;2023-08-31T07:31:50;9.30;;;2.40;;
57317;SDS011;43157;50.982;18.132;2023-08-31T07:34:16;10.20;;;2.80;;
57317;SDS011;43157;50.982;18.132;2023-08-31T07:36:42;8.40;;;2.70;;
57317;SDS011;43157;50.982;18.132;2023-08-31T07:39:09;7.60;;;2.90;;
57317;SDS011;43157;50.982;18.132;2023-08-31T07:41:35;6.70;;;2.70;;
57317;SDS011;43157;50.982;18.132;2023-08-31T07:44:01;6.80;;;2.70;;
57317;SDS011;43157;50.982;18.132;2023-08-31T07:46:29;6.70;;;2.50;;
57317;SDS011;43157;50.982;18.132;2023-08-31T07:48:55;8.00;;;2.70;;
57317;SDS011;43157;50.982;18.132;2023-08-31T07:51:21;6.90;;;2.90;;
57317;SDS011;43157;50.982;18.132;2023-08-31T07:53:49;7.80;;;3.00;;
57317;SDS011;43157;50.982;18.132;2023-08-31T07:56:15;9.10;;;2.80;;
57317;SDS011;43157;50.982;18.132;2023-08-31T07:58:41;7.50;;;2.40;;
57317;SDS011;43157;50.982;18.132;2023-08-31T08:01:07;8.00;;;3.00;;
57317;SDS011;43157;50.982;18.132;2023-08-31T08:03:34;7.60;;;2.60;;
57317;SDS011;43157;50.982;18.132;2023-08-31T08:06:00;6.90;;;2.60;;
57317;SDS011;43157;50.982;18.132;2023-08-31T08:08:26;8.00;;;2.80;;
57317;SDS011;43157;50.982;18.132;2023-08-31T08:10:52;7.30;;;2.60;;
57317;SDS011;43157;50.982;18.132;2023-08-31T08:13:20;6.90;;;2.50;;
57317;SDS011;43157;50.982;18.132;2023-08-31T08:15:46;5.80;;;2.60;;
57317;SDS011;43157;50.982;18.132;2023-08-31T08:18:12;8.10;;;2.90;;
57317;SDS011;43157;50.982;18.132;2023-08-31T08:20:38;7.30;;;2.80;;
57317;SDS011;43157;50.982;18.132;2023-08-31T08:23:05;8.10;;;3.10;;
57317;SDS011;43157;50.982;18.132;2023-08-31T08:25:31;5.70;;;2.30;;
57317;SDS011;43157;50.982;18.132;2023-08-31T08:27:57;10.30;;;3.50;;
57317;SDS011;43157;50.982;18.132;2023-08-31T08:30:23;8.80;;;2.90;;
57317;SDS011;43157;50.982;18.132;2023-08-31T08:32:49;7.70;;;3.00;;
57317;SDS011;43157;50.982;18.132;2023-08-31T08:35:15;8.60;;;3.40;;
57317;SDS011;43157;50.982;18.132;2023-08-31T08:37:42;6.80;;;2.90;;
57317;SDS011;43157;50.982;18.132;2023-08-31T08:40:09;8.10;;;3.20;;
57317;SDS011;43157;50.982;18.132;2023-08-31T08:42:38;7.00;;;3.00;;
57317;SDS011;43157;50.982;18.132;2023-08-31T08:45:13;7.40;;;3.00;;
57317;SDS011;43157;50.982;18.132;2023-08-31T08:47:43;8.20;;;2.90;;
57317;SDS011;43157;50.982;18.132;2023-08-31T08:50:10;8.00;;;3.20;;
57317;SDS011;43157;50.982;18.132;2023-08-31T08:52:37;8.60;;;3.30;;
57317;SDS011;43157;50.982;18.132;2023-08-31T08:55:04;7.20;;;3.00;;
57317;SDS011;43157;50.982;18.132;2023-08-31T08:57:31;8.60;;;3.00;;
57317;SDS011;43157;50.982;18.132;2023-08-31T08:59:57;6.80;;;2.90;;
57317;SDS011;43157;50.982;18.132;2023-08-31T09:02:24;9.50;;;3.00;;
57317;SDS011;43157;50.982;18.132;2023-08-31T09:04:50;8.10;;;3.00;;
57317;SDS011;43157;50.982;18.132;2023-08-31T09:07:20;8.20;;;2.70;;
57317;SDS011;43157;50.982;18.132;2023-08-31T09:09:52;6.40;;;2.60;;
57317;SDS011;43157;50.982;18.132;2023-08-31T09:12:20;6.50;;;2.70;;
57317;SDS011;43157;50.982;18.132;2023-08-31T09:15:00;8.50;;;3.10;;
57317;SDS011;43157;50.982;18.132;2023-08-31T09:17:37;8.30;;;2.70;;
57317;SDS011;43157;50.982;18.132;2023-08-31T09:20:09;7.10;;;2.80;;
57317;SDS011;43157;50.982;18.132;2023-08-31T09:22:36;7.90;;;2.60;;
57317;SDS011;43157;50.982;18.132;2023-08-31T09:25:02;6.70;;;2.40;;
57317;SDS011;43157;50.982;18.132;2023-08-31T09:27:29;7.00;;;2.60;;
57317;SDS011;43157;50.982;18.132;2023-08-31T09:29:56;7.20;;;2.60;;
57317;SDS011;43157;50.982;18.132;2023-08-31T09:32:22;7.20;;;2.70;;
57317;SDS011;43157;50.982;18.132;2023-08-31T09:34:48;5.90;;;2.50;;
57317;SDS011;43157;50.982;18.132;2023-08-31T09:37:17;7.40;;;3.10;;
57317;SDS011;43157;50.982;18.132;2023-08-31T09:39:43;7.60;;;2.40;;
57317;SDS011;43157;50.982;18.132;2023-08-31T09:42:10;7.50;;;2.70;;
57317;SDS011;43157;50.982;18.132;2023-08-31T09:44:39;7.00;;;2.50;;
57317;SDS011;43157;50.982;18.132;2023-08-31T09:47:07;6.40;;;2.80;;
57317;SDS011;43157;50.982;18.132;2023-08-31T09:49:33;7.80;;;2.80;;
57317;SDS011;43157;50.982;18.132;2023-08-31T09:52:00;8.20;;;3.00;;
57317;SDS011;43157;50.982;18.132;2023-08-31T09:54:28;7.70;;;2.90;;
57317;SDS011;43157;50.982;18.132;2023-08-31T09:56:55;8.00;;;2.90;;
57317;SDS011;43157;50.982;18.132;2023-08-31T09:59:22;6.60;;;3.00;;
57317;SDS011;43157;50.982;18.132;2023-08-31T10:01:48;6.60;;;2.60;;
57317;SDS011;43157;50.982;18.132;2023-08-31T10:04:14;7.20;;;2.80;;
57317;SDS011;43157;50.982;18.132;2023-08-31T10:06:41;6.50;;;2.60;;
57317;SDS011;43157;50.982;18.132;2023-08-31T10:09:08;7.90;;;2.60;;
57317;SDS011;43157;50.982;18.132;2023-08-31T10:11:40;6.00;;;2.30;;
57317;SDS011;43157;50.982;18.132;2023-08-31T10:14:08;6.70;;;2.30;;
57317;SDS011;43157;50.982;18.132;2023-08-31T10:16:34;8.00;;;3.10;;
57317;SDS011;43157;50.982;18.132;2023-08-31T10:19:01;11.00;;;3.20;;
57317;SDS011;43157;50.982;18.132;2023-08-31T10:21:28;6.00;;;2.10;;
57317;SDS011;43157;50.982;18.132;2023-08-31T10:23:54;6.70;;;2.60;;
57317;SDS011;43157;50.982;18.132;2023-08-31T10:26:24;6.30;;;2.40;;
57317;SDS011;43157;50.982;18.132;2023-08-31T10:31:20;6.70;;;2.40;;
57317;SDS011;43157;50.982;18.132;2023-08-31T10:36:34;5.10;;;2.10;;
57317;SDS011;43157;50.982;18.132;2023-08-31T10:39:06;5.50;;;2.00;;
57317;SDS011;43157;50.982;18.132;2023-08-31T10:41:37;6.10;;;2.00;;
57317;SDS011;43157;50.982;18.132;2023-08-31T10:44:17;5.80;;;2.20;;
57317;SDS011;43157;50.982;18.132;2023-08-31T10:46:43;5.80;;;2.50;;
57317;SDS011;43157;50.982;18.132;2023-08-31T10:51:37;6.00;;;2.10;;
57317;SDS011;43157;50.982;18.132;2023-08-31T10:54:05;4.80;;;1.70;;
57317;SDS011;43157;50.982;18.132;2023-08-31T10:59:26;7.10;;;2.00;;
57317;SDS011;43157;50.982;18.132;2023-08-31T11:02:07;5.40;;;1.90;;
57317;SDS011;43157;50.982;18.132;2023-08-31T11:04:51;5.50;;;2.00;;
57317;SDS011;43157;50.982;18.132;2023-08-31T11:07:23;5.60;;;2.10;;
57317;SDS011;43157;50.982;18.132;2023-08-31T11:09:50;6.70;;;2.00;;
57317;SDS011;43157;50.982;18.132;2023-08-31T11:12:16;5.20;;;1.60;;
57317;SDS011;43157;50.982;18.132;2023-08-31T11:14:42;8.00;;;2.00;;
57317;SDS011;43157;50.982;18.132;2023-08-31T11:17:09;5.60;;;2.00;;
57317;SDS011;43157;50.982;18.132;2023-08-31T11:19:37;6.20;;;2.20;;
57317;SDS011;43157;50.982;18.132;2023-08-31T11:22:03;6.80;;;2.50;;
57317;SDS011;43157;50.982;18.132;2023-08-31T11:24:32;7.10;;;2.40;;
57317;SDS011;43157;50.982;18.132;2023-08-31T11:26:59;8.30;;;2.60;;
57317;SDS011;43157;50.982;18.132;2023-08-31T11:29:25;6.50;;;2.30;;
57317;SDS011;43157;50.982;18.132;2023-08-31T11:31:51;6.90;;;2.70;;
57317;SDS011;43157;50.982;18.132;2023-08-31T11:34:17;9.00;;;2.60;;
57317;SDS011;43157;50.982;18.132;2023-08-31T11:36:45;6.20;;;2.00;;
57317;SDS011;43157;50.982;18.132;2023-08-31T11:39:12;5.40;;;1.60;;
57317;SDS011;43157;50.982;18.132;2023-08-31T11:41:40;5.50;;;1.70;;
57317;SDS011;43157;50.982;18.132;2023-08-31T11:44:09;5.50;;;1.50;;
57317;SDS011;43157;50.982;18.132;2023-08-31T11:46:38;4.50;;;1.40;;
57317;SDS011;43157;50.982;18.132;2023-08-31T11:49:06;4.80;;;1.30;;
57317;SDS011;43157;50.982;18.132;2023-08-31T11:51:33;4.80;;;1.50;;
57317;SDS011;43157;50.982;18.132;2023-08-31T11:54:02;6.10;;;1.70;;
57317;SDS011;43157;50.982;18.132;2023-08-31T11:56:38;8.20;;;1.80;;
57317;SDS011;43157;50.982;18.132;2023-08-31T11:59:09;8.60;;;1.90;;
57317;SDS011;43157;50.982;18.132;2023-08-31T12:01:38;5.20;;;1.80;;
57317;SDS011;43157;50.982;18.132;2023-08-31T12:04:10;6.10;;;1.70;;
57317;SDS011;43157;50.982;18.132;2023-08-31T12:06:39;5.50;;;1.90;;
57317;SDS011;43157;50.982;18.132;2023-08-31T12:09:09;5.80;;;1.90;;
57317;SDS011;43157;50.982;18.132;2023-08-31T12:11:36;7.90;;;2.20;;
57317;SDS011;43157;50.982;18.132;2023-08-31T12:14:02;6.60;;;2.00;;
57317;SDS011;43157;50.982;18.132;2023-08-31T12:16:32;7.90;;;1.80;;
57317;SDS011;43157;50.982;18.132;2023-08-31T12:19:04;6.30;;;1.80;;
57317;SDS011;43157;50.982;18.132;2023-08-31T12:21:31;5.70;;;1.70;;
57317;SDS011;43157;50.982;18.132;2023-08-31T12:23:57;5.40;;;1.60;;
57317;SDS011;43157;50.982;18.132;2023-08-31T12:26:24;6.40;;;1.50;;
57317;SDS011;43157;50.982;18.132;2023-08-31T12:28:53;7.80;;;2.00;;
57317;SDS011;43157;50.982;18.132;2023-08-31T12:31:20;5.20;;;1.30;;
57317;SDS011;43157;50.982;18.132;2023-08-31T12:33:47;4.10;;;1.50;;
57317;SDS011;43157;50.982;18.132;2023-08-31T12:36:13;6.80;;;1.30;;
57317;SDS011;43157;50.982;18.132;2023-08-31T12:38:40;4.20;;;1.40;;
57317;SDS011;43157;50.982;18.132;2023-08-31T12:41:06;5.80;;;1.30;;
57317;SDS011;43157;50.982;18.132;2023-08-31T12:43:33;4.70;;;1.20;;
57317;SDS011;43157;50.982;18.132;2023-08-31T12:45:59;3.90;;;1.30;;
57317;SDS011;43157;50.982;18.132;2023-08-31T12:48:26;5.80;;;1.10;;
57317;SDS011;43157;50.982;18.132;2023-08-31T12:50:52;3.20;;;0.90;;
57317;SDS011;43157;50.982;18.132;2023-08-31T12:53:22;3.90;;;1.20;;
57317;SDS011;43157;50.982;18.132;2023-08-31T12:55:49;3.90;;;1.10;;
57317;SDS011;43157;50.982;18.132;2023-08-31T12:58:15;3.70;;;1.00;;
57317;SDS011;43157;50.982;18.132;2023-08-31T13:00:42;3.00;;;0.90;;
57317;SDS011;43157;50.982;18.132;2023-08-31T13:03:09;4.40;;;1.00;;
57317;SDS011;43157;50.982;18.132;2023-08-31T13:05:38;4.40;;;1.00;;
57317;SDS011;43157;50.982;18.132;2023-08-31T13:08:05;3.10;;;0.90;;
57317;SDS011;43157;50.982;18.132;2023-08-31T13:10:32;5.60;;;0.90;;
57317;SDS011;43157;50.982;18.132;2023-08-31T13:12:58;2.80;;;0.80;;
57317;SDS011;43157;50.982;18.132;2023-08-31T13:15:24;3.50;;;0.80;;
57317;SDS011;43157;50.982;18.132;2023-08-31T13:17:51;6.20;;;1.00;;
57317;SDS011;43157;50.982;18.132;2023-08-31T13:20:17;6.30;;;1.30;;
57317;SDS011;43157;50.982;18.132;2023-08-31T13:22:43;6.10;;;1.00;;
57317;SDS011;43157;50.982;18.132;2023-08-31T13:25:09;4.10;;;0.90;;
57317;SDS011;43157;50.982;18.132;2023-08-31T13:27:37;3.60;;;1.00;;
57317;SDS011;43157;50.982;18.132;2023-08-31T13:30:03;4.10;;;1.00;;
57317;SDS011;43157;50.982;18.132;2023-08-31T13:32:34;3.40;;;0.90;;
57317;SDS011;43157;50.982;18.132;2023-08-31T13:35:00;4.10;;;1.00;;
57317;SDS011;43157;50.982;18.132;2023-08-31T13:37:26;5.20;;;1.00;;
57317;SDS011;43157;50.982;18.132;2023-08-31T13:39:53;4.40;;;1.10;;
57317;SDS011;43157;50.982;18.132;2023-08-31T13:42:22;4.00;;;0.90;;
57317;SDS011;43157;50.982;18.132;2023-08-31T13:44:48;5.20;;;1.10;;
57317;SDS011;43157;50.982;18.132;2023-08-31T13:47:14;4.10;;;0.80;;
57317;SDS011;43157;50.982;18.132;2023-08-31T13:49:40;5.90;;;0.90;;
57317;SDS011;43157;50.982;18.132;2023-08-31T13:52:06;2.50;;;0.60;;
57317;SDS011;43157;50.982;18.132;2023-08-31T13:54:34;3.90;;;0.80;;
57317;SDS011;43157;50.982;18.132;2023-08-31T13:57:00;3.40;;;0.80;;
57317;SDS011;43157;50.982;18.132;2023-08-31T13:59:27;3.90;;;0.80;;
57317;SDS011;43157;50.982;18.132;2023-08-31T14:01:53;5.30;;;0.90;;
57317;SDS011;43157;50.982;18.132;2023-08-31T14:04:20;6.20;;;1.20;;
57317;SDS011;43157;50.982;18.132;2023-08-31T14:06:48;3.90;;;0.80;;
57317;SDS011;43157;50.982;18.132;2023-08-31T14:09:14;4.30;;;1.30;;
57317;SDS011;43157;50.982;18.132;2023-08-31T14:11:40;5.20;;;1.10;;
57317;SDS011;43157;50.982;18.132;2023-08-31T14:14:06;5.30;;;1.00;;
57317;SDS011;43157;50.982;18.132;2023-08-31T14:16:36;4.50;;;1.00;;
57317;SDS011;43157;50.982;18.132;2023-08-31T14:19:03;4.10;;;1.20;;
57317;SDS011;43157;50.982;18.132;2023-08-31T14:21:30;5.20;;;1.20;;
57317;SDS011;43157;50.982;18.132;2023-08-31T14:23:56;3.80;;;1.10;;
57317;SDS011;43157;50.982;18.132;2023-08-31T14:26:22;3.70;;;1.10;;
57317;SDS011;43157;50.982;18.132;2023-08-31T14:28:50;4.10;;;1.10;;
57317;SDS011;43157;50.982;18.132;2023-08-31T14:31:17;7.20;;;1.10;;
57317;SDS011;43157;50.982;18.132;2023-08-31T14:33:43;3.90;;;1.10;;
57317;SDS011;43157;50.982;18.132;2023-08-31T14:36:10;4.40;;;0.90;;
57317;SDS011;43157;50.982;18.132;2023-08-31T14:38:36;3.10;;;0.90;;
57317;SDS011;43157;50.982;18.132;2023-08-31T14:41:02;7.30;;;0.70;;
57317;SDS011;43157;50.982;18.132;2023-08-31T14:43:30;2.90;;;0.70;;
57317;SDS011;43157;50.982;18.132;2023-08-31T14:45:56;2.70;;;0.60;;
57317;SDS011;43157;50.982;18.132;2023-08-31T14:48:22;3.20;;;0.80;;
57317;SDS011;43157;50.982;18.132;2023-08-31T14:50:49;3.10;;;0.80;;
57317;SDS011;43157;50.982;18.132;2023-08-31T14:53:15;4.00;;;0.90;;
57317;SDS011;43157;50.982;18.132;2023-08-31T14:55:42;4.50;;;0.70;;
57317;SDS011;43157;50.982;18.132;2023-08-31T14:58:13;2.50;;;0.80;;
57317;SDS011;43157;50.982;18.132;2023-08-31T15:00:39;4.00;;;0.70;;
57317;SDS011;43157;50.982;18.132;2023-08-31T15:03:06;3.50;;;0.80;;
57317;SDS011;43157;50.982;18.132;2023-08-31T15:05:32;2.90;;;0.90;;
57317;SDS011;43157;50.982;18.132;2023-08-31T15:08:00;3.30;;;0.80;;